Darstellungsparameter: Aktuell verwendete Einstellungen:
Skalierung der Graphiken ... ?
xyx+y,   Skalierungsfaktor:      Skalierung: Modus: x, Faktor: 1
Darstellungszeitraum ... ?
Vom - - bis: - -   Zeitraum: 05.05.2019 - 06.05.2019
Min/Max/Avg-Anzeige ... ?
Zeige MMA aktuell
Zeige MMA Monat
Zeige MMA alles
Zeige --A aktuell
Zeige --A Monat
Zeige --A alles
Keine MMA-Anzeige
MMA:
Average (ber die Originaldaten)
MMA-Basis: 05.05.2019 - 06.05.2019
Quicknavigation für Darstellung... ?
Tage:      1T, 2T, 3T, 5T -1T -2T -3T -5T +1T +2T +3T +5T
Wochen: 1W, 2W, 3W -1W -2W -3W +1W +2W +3W
Monate: 1M, 3M, 6M -1M -3M -6M +1M +3M +6M
Jahre:    1J, 3J, 5J, 10J -1J -3J -5J -10J +1J +3J +5J +10J
Nutze für die Darstellung ... ?
Originaldaten oder Mittelwerte auf ...
Stundenbasis Tagesbasis Wochenbasis
Monatsbasis Jahresbasis      Datenbasis: Original-Daten
Darstellen als:
Statistik (Auto) Statistik J:M      Darstellung:
Zur Graphik,    zurück zur Übersicht aller Sensoren.
 
Tabellarische Datenbersicht: ?
 
Sensor: Nr:Datum:Temp:Abs-Feuchte:Windchill:Wind:
Aussen-T/F 1 05-05-2019 00:00:00 3.6 C 5.63 g/m*3 3.6 C 0 km/h
2 05-05-2019 00:05:00 3.6 C 5.63 g/m*3 3.6 C 0 km/h
3 05-05-2019 00:10:00 3.6 C 5.63 g/m*3 3.6 C 0 km/h
4 05-05-2019 00:15:00 3.7 C 5.73 g/m*3 3.7 C 3.2 km/h
5 05-05-2019 00:20:00 3.7 C 5.73 g/m*3 3.7 C 0 km/h
6 05-05-2019 00:25:00 3.7 C 5.73 g/m*3 3.7 C 0 km/h
7 05-05-2019 00:30:00 3.8 C 5.77 g/m*3 1.7 C 8.1 km/h
8 05-05-2019 00:35:00 3.8 C 5.77 g/m*3 3.8 C 0 km/h
9 05-05-2019 00:40:00 3.8 C 5.77 g/m*3 3.8 C 1.6 km/h
10 05-05-2019 00:45:00 3.8 C 5.77 g/m*3 3.8 C 4.8 km/h
11 05-05-2019 00:50:00 3.8 C 5.77 g/m*3 3.8 C 3.2 km/h
12 05-05-2019 00:55:00 3.7 C 5.73 g/m*3 3.7 C 4.8 km/h
13 05-05-2019 01:00:00 3.8 C 5.77 g/m*3 3.8 C 0 km/h
14 05-05-2019 01:05:00 3.7 C 5.73 g/m*3 3.7 C 3.2 km/h
15 05-05-2019 01:10:00 3.7 C 5.73 g/m*3 3.7 C 0 km/h
16 05-05-2019 01:15:00 3.7 C 5.73 g/m*3 3.7 C 0 km/h
17 05-05-2019 01:20:00 3.7 C 5.8 g/m*3 3.7 C 0 km/h
18 05-05-2019 01:25:00 3.8 C 5.83 g/m*3 3.8 C 0 km/h
19 05-05-2019 01:30:00 3.9 C 5.87 g/m*3 3.9 C 1.6 km/h
20 05-05-2019 01:35:00 3.9 C 5.87 g/m*3 3.9 C 0 km/h
21 05-05-2019 01:40:00 3.9 C 5.87 g/m*3 3.9 C 0 km/h
22 05-05-2019 01:45:00 3.9 C 5.87 g/m*3 3.9 C 0 km/h
23 05-05-2019 01:50:00 3.9 C 5.87 g/m*3 3.9 C 0 km/h
24 05-05-2019 01:55:00 3.8 C 5.83 g/m*3 3.8 C 1.6 km/h
25 05-05-2019 02:00:00 3.8 C 5.83 g/m*3 3.8 C 0 km/h
Sensor: Nr:Datum:Temp:Abs-Feuchte:Windchill:Wind:
Aussen-T/F 26 05-05-2019 02:05:00 3.7 C 5.8 g/m*3 3.7 C 0 km/h
27 05-05-2019 02:10:00 3.6 C 5.69 g/m*3 3.6 C 0 km/h
28 05-05-2019 02:15:00 3.5 C 5.66 g/m*3 3.5 C 0 km/h
29 05-05-2019 02:20:00 3.4 C 5.62 g/m*3 3.4 C 0 km/h
30 05-05-2019 02:25:00 3.3 C 5.58 g/m*3 3.3 C 0 km/h
31 05-05-2019 02:30:00 3.3 C 5.64 g/m*3 3.3 C 4.8 km/h
32 05-05-2019 02:35:00 3.4 C 5.68 g/m*3 3.4 C 3.2 km/h
33 05-05-2019 02:40:00 3.4 C 5.68 g/m*3 3.4 C 1.6 km/h
34 05-05-2019 02:45:00 3.4 C 5.68 g/m*3 3.4 C 0 km/h
35 05-05-2019 02:50:00 3.4 C 5.68 g/m*3 3.4 C 0 km/h
36 05-05-2019 02:55:00 3.3 C 5.64 g/m*3 3.3 C 0 km/h
37 05-05-2019 03:00:00 3.3 C 5.64 g/m*3 3.3 C 0 km/h
38 05-05-2019 03:05:00 3.4 C 5.74 g/m*3 3.4 C 1.6 km/h
39 05-05-2019 03:10:00 3.5 C 5.78 g/m*3 3.5 C 1.6 km/h
40 05-05-2019 03:15:00 3.6 C 5.82 g/m*3 3.6 C 0 km/h
41 05-05-2019 03:20:00 3.7 C 5.86 g/m*3 3.7 C 0 km/h
42 05-05-2019 03:25:00 3.7 C 5.86 g/m*3 3.7 C 1.6 km/h
43 05-05-2019 03:30:00 3.8 C 5.9 g/m*3 3.8 C 0 km/h
44 05-05-2019 03:35:00 3.8 C 5.9 g/m*3 3.8 C 0 km/h
45 05-05-2019 03:40:00 3.8 C 5.9 g/m*3 3.8 C 0 km/h
46 05-05-2019 03:45:00 3.9 C 5.94 g/m*3 3.9 C 0 km/h
47 05-05-2019 03:50:00 3.9 C 5.87 g/m*3 3.9 C 4.8 km/h
48 05-05-2019 03:55:00 3.8 C 5.83 g/m*3 3.8 C 3.2 km/h
49 05-05-2019 04:00:00 3.8 C 5.83 g/m*3 3.8 C 0 km/h
50 05-05-2019 04:05:00 3.8 C 5.83 g/m*3 3.8 C 4.8 km/h
Sensor: Nr:Datum:Temp:Abs-Feuchte:Windchill:Wind:
Aussen-T/F 51 05-05-2019 04:10:00 3.8 C 5.83 g/m*3 3.8 C 0 km/h
52 05-05-2019 04:15:00 3.7 C 5.8 g/m*3 3.7 C 0 km/h
53 05-05-2019 04:20:00 3.7 C 5.8 g/m*3 3.7 C 3.2 km/h
54 05-05-2019 04:25:00 3.7 C 5.8 g/m*3 3.7 C 1.6 km/h
55 05-05-2019 04:30:00 3.7 C 5.8 g/m*3 3.7 C 0 km/h
56 05-05-2019 04:35:00 3.7 C 5.8 g/m*3 3.7 C 4.8 km/h
57 05-05-2019 04:40:00 3.6 C 5.76 g/m*3 1.98 C 6.4 km/h
58 05-05-2019 04:45:00 3.6 C 5.69 g/m*3 1.98 C 6.4 km/h
59 05-05-2019 04:50:00 3.6 C 5.69 g/m*3 3.6 C 1.6 km/h
60 05-05-2019 04:55:00 3.6 C 5.69 g/m*3 3.6 C 4.8 km/h
61 05-05-2019 05:00:00 3.5 C 5.66 g/m*3 3.5 C 3.2 km/h
62 05-05-2019 05:05:00 3.5 C 5.66 g/m*3 3.5 C 1.6 km/h
63 05-05-2019 05:10:00 3.4 C 5.62 g/m*3 3.4 C 0 km/h
64 05-05-2019 05:15:00 3.4 C 5.62 g/m*3 1.23 C 8.1 km/h
65 05-05-2019 05:20:00 3.3 C 5.58 g/m*3 0.7 C 9.7 km/h
66 05-05-2019 05:25:00 3.3 C 5.58 g/m*3 0.7 C 9.7 km/h
67 05-05-2019 05:30:00 3.3 C 5.58 g/m*3 3.3 C 1.6 km/h
68 05-05-2019 05:35:00 3.3 C 5.58 g/m*3 3.3 C 4.8 km/h
69 05-05-2019 05:40:00 3.3 C 5.58 g/m*3 3.3 C 0 km/h
70 05-05-2019 05:45:00 3.3 C 5.58 g/m*3 3.3 C 1.6 km/h
71 05-05-2019 05:50:00 3.2 C 5.54 g/m*3 3.2 C 3.2 km/h
72 05-05-2019 05:55:00 3.2 C 5.54 g/m*3 3.2 C 0 km/h
73 05-05-2019 06:00:00 3.1 C 5.51 g/m*3 3.1 C 4.8 km/h
74 05-05-2019 06:05:00 3.1 C 5.51 g/m*3 3.1 C 0 km/h
75 05-05-2019 06:10:00 3 C 5.47 g/m*3 3 C 0 km/h
Sensor: Nr:Datum:Temp:Abs-Feuchte:Windchill:Wind:
Aussen-T/F 76 05-05-2019 06:15:00 2.9 C 5.43 g/m*3 2.9 C 0 km/h
77 05-05-2019 06:20:00 2.8 C 5.4 g/m*3 2.8 C 0 km/h
78 05-05-2019 06:25:00 2.7 C 5.36 g/m*3 2.7 C 0 km/h
79 05-05-2019 06:30:00 2.7 C 5.36 g/m*3 2.7 C 0 km/h
80 05-05-2019 06:35:00 2.6 C 5.32 g/m*3 2.6 C 0 km/h
81 05-05-2019 06:40:00 2.5 C 5.29 g/m*3 2.5 C 0 km/h
82 05-05-2019 06:45:00 2.5 C 5.29 g/m*3 2.5 C 0 km/h
83 05-05-2019 06:50:00 2.5 C 5.29 g/m*3 2.5 C 0 km/h
84 05-05-2019 06:55:00 2.4 C 5.31 g/m*3 2.4 C 0 km/h
85 05-05-2019 07:00:00 2.4 C 5.31 g/m*3 2.4 C 0 km/h
86 05-05-2019 07:05:00 2.4 C 5.31 g/m*3 2.4 C 0 km/h
87 05-05-2019 07:10:00 2.4 C 5.31 g/m*3 2.4 C 0 km/h
88 05-05-2019 07:15:00 2.3 C 5.27 g/m*3 2.3 C 0 km/h
89 05-05-2019 07:20:00 2.3 C 5.27 g/m*3 2.3 C 0 km/h
90 05-05-2019 07:25:00 2.3 C 5.27 g/m*3 2.3 C 0 km/h
91 05-05-2019 07:30:00 2.3 C 5.27 g/m*3 2.3 C 0 km/h
92 05-05-2019 07:35:00 2.3 C 5.27 g/m*3 2.3 C 0 km/h
93 05-05-2019 07:40:00 2.5 C 5.4 g/m*3 2.5 C 0 km/h
94 05-05-2019 07:45:00 2.7 C 5.48 g/m*3 2.7 C 0 km/h
95 05-05-2019 07:50:00 2.8 C 5.51 g/m*3 2.8 C 0 km/h
96 05-05-2019 07:55:00 2.9 C 5.55 g/m*3 2.9 C 3.2 km/h
97 05-05-2019 08:00:00 2.9 C 5.55 g/m*3 2.9 C 4.8 km/h
98 05-05-2019 08:05:00 3 C 5.59 g/m*3 3 C 3.2 km/h
99 05-05-2019 08:10:00 3.1 C 5.63 g/m*3 3.1 C 3.2 km/h
100 05-05-2019 08:15:00 3.1 C 5.63 g/m*3 3.1 C 4.8 km/h
Sensor: Nr:Datum:Temp:Abs-Feuchte:Windchill:Wind:
Aussen-T/F 101 05-05-2019 08:20:00 3.2 C 5.66 g/m*3 1.51 C 6.4 km/h
102 05-05-2019 08:25:00 3.3 C 5.7 g/m*3 1.11 C 8.1 km/h
103 05-05-2019 08:30:00 3.3 C 5.7 g/m*3 1.63 C 6.4 km/h
104 05-05-2019 08:35:00 3.4 C 5.74 g/m*3 1.75 C 6.4 km/h
105 05-05-2019 08:40:00 3.6 C 5.82 g/m*3 3.6 C 3.2 km/h
106 05-05-2019 08:45:00 3.7 C 5.86 g/m*3 2.09 C 6.4 km/h
107 05-05-2019 08:50:00 3.8 C 5.9 g/m*3 2.21 C 6.4 km/h
108 05-05-2019 08:55:00 3.9 C 5.94 g/m*3 2.32 C 6.4 km/h
109 05-05-2019 09:00:00 3.9 C 5.94 g/m*3 3.9 C 4.8 km/h
110 05-05-2019 09:05:00 4.1 C 6.02 g/m*3 1.65 C 9.7 km/h
111 05-05-2019 09:10:00 4.1 C 5.95 g/m*3 2.05 C 8.1 km/h
112 05-05-2019 09:15:00 4.3 C 6.03 g/m*3 4.3 C 4.8 km/h
113 05-05-2019 09:20:00 4.5 C 6.05 g/m*3 4.5 C 4.8 km/h
114 05-05-2019 09:25:00 4.7 C 6.06 g/m*3 3.25 C 6.4 km/h
115 05-05-2019 09:30:00 4.9 C 6.14 g/m*3 4.9 C 4.8 km/h
116 05-05-2019 09:35:00 5.1 C 6.09 g/m*3 5.1 C 3.2 km/h
117 05-05-2019 09:40:00 5.2 C 6.13 g/m*3 5.2 C 0 km/h
118 05-05-2019 09:45:00 5.3 C 6.1 g/m*3 5.3 C 4.8 km/h
119 05-05-2019 09:50:00 5.3 C 6.17 g/m*3 5.3 C 0 km/h
120 05-05-2019 09:55:00 5.4 C 6.14 g/m*3 5.4 C 0 km/h
121 05-05-2019 10:00:00 5.4 C 6.07 g/m*3 5.4 C 1.6 km/h
122 05-05-2019 10:05:00 5.5 C 6.11 g/m*3 5.5 C 3.2 km/h
123 05-05-2019 10:10:00 5.6 C 6.15 g/m*3 5.6 C 4.8 km/h
124 05-05-2019 10:15:00 5.6 C 6.15 g/m*3 4.29 C 6.4 km/h
125 05-05-2019 10:20:00 5.6 C 6.08 g/m*3 3.81 C 8.1 km/h
Sensor: Nr:Datum:Temp:Abs-Feuchte:Windchill:Wind:
Aussen-T/F 126 05-05-2019 10:25:00 5.7 C 6.12 g/m*3 5.7 C 4.8 km/h
127 05-05-2019 10:30:00 5.7 C 6.19 g/m*3 5.7 C 3.2 km/h
128 05-05-2019 10:35:00 5.9 C 6.27 g/m*3 4.17 C 8.1 km/h
129 05-05-2019 10:40:00 5.9 C 6.27 g/m*3 3.8 C 9.7 km/h
130 05-05-2019 10:45:00 6.2 C 6.32 g/m*3 4.98 C 6.4 km/h
131 05-05-2019 10:50:00 6.4 C 6.41 g/m*3 4.39 C 9.7 km/h
132 05-05-2019 10:55:00 6.6 C 6.42 g/m*3 4.99 C 8.1 km/h
133 05-05-2019 11:00:00 6.6 C 6.27 g/m*3 4.32 C 11.3 km/h
134 05-05-2019 11:05:00 6.6 C 6.34 g/m*3 5.44 C 6.4 km/h
135 05-05-2019 11:10:00 6.6 C 6.34 g/m*3 4.63 C 9.7 km/h
136 05-05-2019 11:15:00 6.7 C 6.31 g/m*3 5.56 C 6.4 km/h
137 05-05-2019 11:20:00 6.8 C 6.42 g/m*3 5.67 C 6.4 km/h
138 05-05-2019 11:25:00 6.9 C 6.47 g/m*3 5.79 C 6.4 km/h
139 05-05-2019 11:30:00 7.2 C 6.67 g/m*3 6.13 C 6.4 km/h
140 05-05-2019 11:35:00 7.3 C 6.64 g/m*3 5.81 C 8.1 km/h
141 05-05-2019 11:40:00 7.3 C 6.56 g/m*3 6.25 C 6.4 km/h
142 05-05-2019 11:45:00 7.3 C 6.48 g/m*3 7.3 C 4.8 km/h
143 05-05-2019 11:50:00 7.2 C 6.52 g/m*3 5.69 C 8.1 km/h
144 05-05-2019 11:55:00 7.3 C 6.56 g/m*3 6.25 C 6.4 km/h
145 05-05-2019 12:00:00 7.2 C 6.44 g/m*3 6.13 C 6.4 km/h
146 05-05-2019 12:05:00 7.3 C 6.48 g/m*3 6.25 C 6.4 km/h
147 05-05-2019 12:10:00 7.3 C 6.48 g/m*3 6.25 C 6.4 km/h
148 05-05-2019 12:15:00 7.3 C 6.4 g/m*3 6.25 C 6.4 km/h
149 05-05-2019 12:20:00 7.4 C 6.44 g/m*3 5.93 C 8.1 km/h
150 05-05-2019 12:25:00 7.7 C 6.65 g/m*3 5.65 C 11.3 km/h
Sensor: Nr:Datum:Temp:Abs-Feuchte:Windchill:Wind:
Aussen-T/F 151 05-05-2019 12:30:00 7.8 C 6.61 g/m*3 6.83 C 6.4 km/h
152 05-05-2019 12:35:00 7.9 C 6.57 g/m*3 6.18 C 9.7 km/h
153 05-05-2019 12:40:00 7.9 C 6.49 g/m*3 5.39 C 14.5 km/h
154 05-05-2019 12:45:00 7.8 C 6.45 g/m*3 6.83 C 6.4 km/h
155 05-05-2019 12:50:00 7.9 C 6.57 g/m*3 7.9 C 4.8 km/h
156 05-05-2019 12:55:00 8.1 C 6.57 g/m*3 6.75 C 8.1 km/h
157 05-05-2019 13:00:00 8.2 C 6.7 g/m*3 8.2 C 4.8 km/h
158 05-05-2019 13:05:00 8.3 C 6.66 g/m*3 8.3 C 4.8 km/h
159 05-05-2019 13:10:00 8.5 C 6.66 g/m*3 7.22 C 8.1 km/h
160 05-05-2019 13:15:00 8.7 C 6.4 g/m*3 6.85 C 11.3 km/h
161 05-05-2019 13:20:00 8.8 C 6.44 g/m*3 7.98 C 6.4 km/h
162 05-05-2019 13:25:00 8.9 C 6.31 g/m*3 6.85 C 12.9 km/h
163 05-05-2019 13:30:00 8.9 C 6.39 g/m*3 6.85 C 12.9 km/h
164 05-05-2019 13:35:00 9.1 C 6.3 g/m*3 7.33 C 11.3 km/h
165 05-05-2019 13:40:00 9.3 C 6.29 g/m*3 7.58 C 11.3 km/h
166 05-05-2019 13:45:00 9.4 C 6.33 g/m*3 7.46 C 12.9 km/h
167 05-05-2019 13:50:00 9.5 C 6.28 g/m*3 8.79 C 6.4 km/h
168 05-05-2019 13:55:00 9.4 C 6.15 g/m*3 7.97 C 9.7 km/h
169 05-05-2019 14:00:00 9.5 C 6.19 g/m*3 7.58 C 12.9 km/h
170 05-05-2019 14:05:00 9.8 C 6.31 g/m*3 8.18 C 11.3 km/h
171 05-05-2019 14:10:00 10 C 6.11 g/m*3 7.78 C 16.1 km/h
172 05-05-2019 14:15:00 10.1 C 6.15 g/m*3 9.1 C 8.1 km/h
173 05-05-2019 14:20:00 10 C 6.11 g/m*3 8.19 C 12.9 km/h
174 05-05-2019 14:25:00 9.9 C 6.16 g/m*3 8.56 C 9.7 km/h
175 05-05-2019 14:30:00 9.6 C 6.41 g/m*3 7.94 C 11.3 km/h
Sensor: Nr:Datum:Temp:Abs-Feuchte:Windchill:Wind:
Aussen-T/F 176 05-05-2019 14:35:00 9.1 C 6.48 g/m*3 7.09 C 12.9 km/h
177 05-05-2019 14:40:00 8.8 C 6.61 g/m*3 6.3 C 16.1 km/h
178 05-05-2019 14:45:00 8.4 C 6.53 g/m*3 6.24 C 12.9 km/h
179 05-05-2019 14:50:00 8.2 C 6.53 g/m*3 6.25 C 11.3 km/h
180 05-05-2019 14:55:00 8.1 C 6.49 g/m*3 6.13 C 11.3 km/h
181 05-05-2019 15:00:00 8.2 C 6.62 g/m*3 8.2 C 3.2 km/h
182 05-05-2019 15:05:00 8.3 C 6.57 g/m*3 8.3 C 0 km/h
183 05-05-2019 15:10:00 8.7 C 6.66 g/m*3 8.7 C 0 km/h
184 05-05-2019 15:15:00 9.1 C 6.57 g/m*3 9.1 C 4.8 km/h
185 05-05-2019 15:20:00 9.3 C 6.65 g/m*3 9.3 C 4.8 km/h
186 05-05-2019 15:25:00 9.8 C 6.59 g/m*3 9.14 C 6.4 km/h
187 05-05-2019 15:30:00 10.3 C 6.7 g/m*3 9.34 C 8.1 km/h
188 05-05-2019 15:35:00 10.8 C 6.23 g/m*3 10.29 C 6.4 km/h
189 05-05-2019 15:40:00 10.8 C 5.93 g/m*3 9.64 C 9.7 km/h
190 05-05-2019 15:45:00 10.8 C 5.93 g/m*3 9.16 C 12.9 km/h
191 05-05-2019 15:50:00 11 C 6.01 g/m*3 9.63 C 11.3 km/h
192 05-05-2019 15:55:00 11.3 C 6.22 g/m*3 11.3 C 9.7 km/h
193 05-05-2019 16:00:00 11.5 C 5.99 g/m*3 11.5 C 16.1 km/h
194 05-05-2019 16:05:00 11.7 C 6.07 g/m*3 11.7 C 16.1 km/h
195 05-05-2019 16:10:00 11.8 C 6.21 g/m*3 11.8 C 16.1 km/h
196 05-05-2019 16:15:00 12.2 C 6.47 g/m*3 12.2 C 11.3 km/h
197 05-05-2019 16:20:00 12.3 C 6.08 g/m*3 12.3 C 12.9 km/h
198 05-05-2019 16:25:00 12.3 C 6.08 g/m*3 12.3 C 11.3 km/h
199 05-05-2019 16:30:00 12.4 C 6.45 g/m*3 12.4 C 9.7 km/h
200 05-05-2019 16:35:00 12.7 C 6.57 g/m*3 12.7 C 9.7 km/h
Sensor: Nr:Datum:Temp:Abs-Feuchte:Windchill:Wind:
Aussen-T/F 201 05-05-2019 16:40:00 12.9 C 6.42 g/m*3 12.9 C 9.7 km/h
202 05-05-2019 16:45:00 13.2 C 6.2 g/m*3 13.2 C 11.3 km/h
203 05-05-2019 16:50:00 13.1 C 6.39 g/m*3 13.1 C 12.9 km/h
204 05-05-2019 16:55:00 12.6 C 6.53 g/m*3 12.6 C 12.9 km/h
205 05-05-2019 17:00:00 11.8 C 6.42 g/m*3 11.8 C 11.3 km/h
206 05-05-2019 17:05:00 11.6 C 6.55 g/m*3 11.6 C 11.3 km/h
207 05-05-2019 17:10:00 11.7 C 6.48 g/m*3 11.7 C 9.7 km/h
208 05-05-2019 17:15:00 12.2 C 6.58 g/m*3 12.2 C 8.1 km/h
209 05-05-2019 17:20:00 12.3 C 6.41 g/m*3 12.3 C 11.3 km/h
210 05-05-2019 17:25:00 12.4 C 6.23 g/m*3 12.4 C 9.7 km/h
211 05-05-2019 17:30:00 12.8 C 6.61 g/m*3 12.8 C 12.9 km/h
212 05-05-2019 17:35:00 13.1 C 6.5 g/m*3 13.1 C 14.5 km/h
213 05-05-2019 17:40:00 13.1 C 6.39 g/m*3 13.1 C 17.7 km/h
214 05-05-2019 17:45:00 13.2 C 6.54 g/m*3 13.2 C 12.9 km/h
215 05-05-2019 17:50:00 13.3 C 6.59 g/m*3 13.3 C 9.7 km/h
216 05-05-2019 17:55:00 13.2 C 6.43 g/m*3 13.2 C 12.9 km/h
217 05-05-2019 18:00:00 13.4 C 6.63 g/m*3 13.4 C 14.5 km/h
218 05-05-2019 18:05:00 13.4 C 6.51 g/m*3 13.4 C 14.5 km/h
219 05-05-2019 18:10:00 12.8 C 6.5 g/m*3 12.8 C 9.7 km/h
220 05-05-2019 18:15:00 11.7 C 6.59 g/m*3 11.7 C 14.5 km/h
221 05-05-2019 18:20:00 11 C 6.51 g/m*3 9.4 C 12.9 km/h
222 05-05-2019 18:25:00 10.4 C 6.46 g/m*3 9.83 C 6.4 km/h
223 05-05-2019 18:30:00 10.3 C 6.61 g/m*3 9.34 C 8.1 km/h
224 05-05-2019 18:35:00 10.3 C 6.7 g/m*3 9.34 C 8.1 km/h
225 05-05-2019 18:40:00 10.6 C 6.83 g/m*3 8.92 C 12.9 km/h
Sensor: Nr:Datum:Temp:Abs-Feuchte:Windchill:Wind:
Aussen-T/F 226 05-05-2019 18:45:00 10.8 C 6.52 g/m*3 9.38 C 11.3 km/h
227 05-05-2019 18:50:00 10.6 C 6.54 g/m*3 9.4 C 9.7 km/h
228 05-05-2019 18:55:00 10.3 C 6.42 g/m*3 9.72 C 6.4 km/h
229 05-05-2019 19:00:00 10.1 C 6.43 g/m*3 9.1 C 8.1 km/h
230 05-05-2019 19:05:00 9.8 C 6.31 g/m*3 8.18 C 11.3 km/h
231 05-05-2019 19:10:00 9.7 C 6.45 g/m*3 9.7 C 4.8 km/h
232 05-05-2019 19:15:00 9.7 C 6.45 g/m*3 8.63 C 8.1 km/h
233 05-05-2019 19:20:00 9.6 C 6.41 g/m*3 9.6 C 3.2 km/h
234 05-05-2019 19:25:00 9.6 C 6.41 g/m*3 9.6 C 4.8 km/h
235 05-05-2019 19:30:00 9.6 C 6.5 g/m*3 8.52 C 8.1 km/h
236 05-05-2019 19:35:00 9.6 C 6.41 g/m*3 8.52 C 8.1 km/h
237 05-05-2019 19:40:00 9.6 C 6.5 g/m*3 8.52 C 8.1 km/h
238 05-05-2019 19:45:00 9.6 C 6.5 g/m*3 8.91 C 6.4 km/h
239 05-05-2019 19:50:00 9.6 C 6.6 g/m*3 8.91 C 6.4 km/h
240 05-05-2019 19:55:00 9.5 C 6.46 g/m*3 7.82 C 11.3 km/h
241 05-05-2019 20:00:00 9.5 C 6.46 g/m*3 7.82 C 11.3 km/h
242 05-05-2019 20:05:00 9.4 C 6.42 g/m*3 7.46 C 12.9 km/h
243 05-05-2019 20:10:00 9.4 C 6.42 g/m*3 7.97 C 9.7 km/h
244 05-05-2019 20:15:00 9.3 C 6.29 g/m*3 7.85 C 9.7 km/h
245 05-05-2019 20:20:00 9.3 C 6.38 g/m*3 8.56 C 6.4 km/h
246 05-05-2019 20:25:00 9.3 C 6.38 g/m*3 9.3 C 4.8 km/h
247 05-05-2019 20:30:00 9.2 C 6.34 g/m*3 8.45 C 6.4 km/h
248 05-05-2019 20:35:00 9.2 C 6.43 g/m*3 9.2 C 4.8 km/h
249 05-05-2019 20:40:00 9.1 C 6.48 g/m*3 7.09 C 12.9 km/h
250 05-05-2019 20:45:00 8.9 C 6.39 g/m*3 8.1 C 6.4 km/h
Sensor: Nr:Datum:Temp:Abs-Feuchte:Windchill:Wind:
Aussen-T/F 251 05-05-2019 20:50:00 8.9 C 6.48 g/m*3 8.9 C 4.8 km/h
252 05-05-2019 20:55:00 8.8 C 6.53 g/m*3 8.8 C 4.8 km/h
253 05-05-2019 21:00:00 8.7 C 6.57 g/m*3 8.7 C 4.8 km/h
254 05-05-2019 21:05:00 8.6 C 6.44 g/m*3 7.01 C 9.7 km/h
255 05-05-2019 21:10:00 8.6 C 6.62 g/m*3 8.6 C 0 km/h
256 05-05-2019 21:15:00 8.4 C 6.53 g/m*3 8.4 C 3.2 km/h
257 05-05-2019 21:20:00 8.3 C 6.41 g/m*3 8.3 C 4.8 km/h
258 05-05-2019 21:25:00 8.2 C 6.36 g/m*3 8.2 C 4.8 km/h
259 05-05-2019 21:30:00 8.2 C 6.36 g/m*3 7.29 C 6.4 km/h
260 05-05-2019 21:35:00 8.2 C 6.36 g/m*3 7.29 C 6.4 km/h
261 05-05-2019 21:40:00 8.1 C 6.24 g/m*3 8.1 C 4.8 km/h
262 05-05-2019 21:45:00 8 C 6.28 g/m*3 8 C 4.8 km/h
263 05-05-2019 21:50:00 8 C 6.37 g/m*3 8 C 4.8 km/h
264 05-05-2019 21:55:00 7.9 C 6.24 g/m*3 6.94 C 6.4 km/h
265 05-05-2019 22:00:00 7.9 C 6.24 g/m*3 6.94 C 6.4 km/h
266 05-05-2019 22:05:00 7.8 C 6.2 g/m*3 6.06 C 9.7 km/h
267 05-05-2019 22:10:00 7.7 C 6.32 g/m*3 7.7 C 0 km/h
268 05-05-2019 22:15:00 7.6 C 6.36 g/m*3 7.6 C 0 km/h
269 05-05-2019 22:20:00 7.3 C 6.24 g/m*3 7.3 C 4.8 km/h
270 05-05-2019 22:25:00 7.2 C 6.28 g/m*3 7.2 C 4.8 km/h
271 05-05-2019 22:30:00 7.1 C 6.32 g/m*3 7.1 C 0 km/h
272 05-05-2019 22:35:00 6.9 C 6.24 g/m*3 6.9 C 0 km/h
273 05-05-2019 22:40:00 6.8 C 6.27 g/m*3 6.8 C 0 km/h
274 05-05-2019 22:45:00 6.6 C 6.27 g/m*3 6.6 C 0 km/h
275 05-05-2019 22:50:00 6.5 C 6.22 g/m*3 6.5 C 4.8 km/h
Sensor: Nr:Datum:Temp:Abs-Feuchte:Windchill:Wind:
Aussen-T/F 276 05-05-2019 22:55:00 6.4 C 6.26 g/m*3 6.4 C 0 km/h
277 05-05-2019 23:00:00 6.4 C 6.26 g/m*3 6.4 C 0 km/h
278 05-05-2019 23:05:00 6.3 C 6.29 g/m*3 6.3 C 0 km/h
279 05-05-2019 23:10:00 6.3 C 6.29 g/m*3 6.3 C 1.6 km/h
280 05-05-2019 23:15:00 6.3 C 6.29 g/m*3 6.3 C 1.6 km/h
281 05-05-2019 23:20:00 6.3 C 6.29 g/m*3 6.3 C 0 km/h
282 05-05-2019 23:25:00 6.3 C 6.29 g/m*3 6.3 C 1.6 km/h
283 05-05-2019 23:30:00 6.2 C 6.25 g/m*3 6.2 C 0 km/h
284 05-05-2019 23:35:00 6.2 C 6.32 g/m*3 6.2 C 0 km/h
285 05-05-2019 23:40:00 6.2 C 6.32 g/m*3 6.2 C 0 km/h
286 05-05-2019 23:45:00 6.2 C 6.32 g/m*3 6.2 C 0 km/h
287 05-05-2019 23:50:00 6.2 C 6.32 g/m*3 6.2 C 0 km/h
288 05-05-2019 23:55:00 6.1 C 6.28 g/m*3 6.1 C 0 km/h
289 06-05-2019 00:00:00 6.1 C 6.28 g/m*3 6.1 C 0 km/h
290 06-05-2019 00:05:00 6.1 C 6.28 g/m*3 6.1 C 0 km/h
291 06-05-2019 00:10:00 6.1 C 6.28 g/m*3 6.1 C 0 km/h
292 06-05-2019 00:15:00 6.1 C 6.28 g/m*3 6.1 C 0 km/h
293 06-05-2019 00:20:00 6.1 C 6.36 g/m*3 6.1 C 0 km/h
294 06-05-2019 00:25:00 6.1 C 6.36 g/m*3 6.1 C 3.2 km/h
295 06-05-2019 00:30:00 6.2 C 6.4 g/m*3 6.2 C 0 km/h
296 06-05-2019 00:35:00 6.2 C 6.32 g/m*3 6.2 C 0 km/h
297 06-05-2019 00:40:00 6.1 C 6.28 g/m*3 6.1 C 0 km/h
298 06-05-2019 00:45:00 6.1 C 6.36 g/m*3 6.1 C 0 km/h
299 06-05-2019 00:50:00 6.1 C 6.36 g/m*3 6.1 C 0 km/h
300 06-05-2019 00:55:00 6.1 C 6.36 g/m*3 6.1 C 0 km/h
Sensor: Nr:Datum:Temp:Abs-Feuchte:Windchill:Wind:
Aussen-T/F 301 06-05-2019 01:00:00 6.1 C 6.36 g/m*3 6.1 C 0 km/h
302 06-05-2019 01:05:00 6.1 C 6.36 g/m*3 6.1 C 0 km/h
303 06-05-2019 01:10:00 6.1 C 6.43 g/m*3 6.1 C 0 km/h
304 06-05-2019 01:15:00 6.1 C 6.43 g/m*3 6.1 C 3.2 km/h
305 06-05-2019 01:20:00 6 C 6.39 g/m*3 6 C 1.6 km/h
306 06-05-2019 01:25:00 6 C 6.39 g/m*3 6 C 0 km/h
307 06-05-2019 01:30:00 5.9 C 6.35 g/m*3 5.9 C 4.8 km/h
308 06-05-2019 01:35:00 5.8 C 6.3 g/m*3 5.8 C 0 km/h
309 06-05-2019 01:40:00 5.8 C 6.3 g/m*3 5.8 C 3.2 km/h
310 06-05-2019 01:45:00 5.7 C 6.19 g/m*3 5.7 C 1.6 km/h
311 06-05-2019 01:50:00 5.7 C 6.19 g/m*3 5.7 C 3.2 km/h
312 06-05-2019 01:55:00 5.6 C 6.15 g/m*3 4.29 C 6.4 km/h
313 06-05-2019 02:00:00 5.6 C 6.15 g/m*3 4.29 C 6.4 km/h
314 06-05-2019 02:05:00 5.6 C 6.15 g/m*3 5.6 C 1.6 km/h
315 06-05-2019 02:10:00 5.4 C 6.07 g/m*3 5.4 C 1.6 km/h
316 06-05-2019 02:15:00 5.3 C 6.03 g/m*3 5.3 C 3.2 km/h
317 06-05-2019 02:20:00 5.3 C 6.1 g/m*3 5.3 C 0 km/h
318 06-05-2019 02:25:00 5.2 C 6.06 g/m*3 5.2 C 1.6 km/h
319 06-05-2019 02:30:00 5.1 C 6.02 g/m*3 5.1 C 3.2 km/h
320 06-05-2019 02:35:00 4.9 C 5.94 g/m*3 4.9 C 0 km/h
321 06-05-2019 02:40:00 4.8 C 5.9 g/m*3 4.8 C 0 km/h
322 06-05-2019 02:45:00 4.7 C 5.93 g/m*3 4.7 C 1.6 km/h
323 06-05-2019 02:50:00 4.7 C 5.93 g/m*3 4.7 C 0 km/h
324 06-05-2019 02:55:00 4.6 C 5.89 g/m*3 4.6 C 0 km/h
325 06-05-2019 03:00:00 4.6 C 5.96 g/m*3 4.6 C 0 km/h
Sensor: Nr:Datum:Temp:Abs-Feuchte:Windchill:Wind:
Aussen-T/F 326 06-05-2019 03:05:00 4.6 C 5.96 g/m*3 4.6 C 0 km/h
327 06-05-2019 03:10:00 4.4 C 5.88 g/m*3 4.4 C 0 km/h
328 06-05-2019 03:15:00 4.4 C 5.88 g/m*3 4.4 C 0 km/h
329 06-05-2019 03:20:00 4.3 C 5.84 g/m*3 4.3 C 0 km/h
330 06-05-2019 03:25:00 4.2 C 5.8 g/m*3 4.2 C 1.6 km/h
331 06-05-2019 03:30:00 4.2 C 5.8 g/m*3 4.2 C 0 km/h
332 06-05-2019 03:35:00 4.1 C 5.82 g/m*3 4.1 C 0 km/h
333 06-05-2019 03:40:00 4.1 C 5.82 g/m*3 4.1 C 0 km/h
334 06-05-2019 03:45:00 4.1 C 5.82 g/m*3 4.1 C 1.6 km/h
335 06-05-2019 03:50:00 4.1 C 5.82 g/m*3 4.1 C 0 km/h
336 06-05-2019 03:55:00 4 C 5.79 g/m*3 4 C 0 km/h
337 06-05-2019 04:00:00 3.9 C 5.75 g/m*3 3.9 C 0 km/h
338 06-05-2019 04:05:00 3.9 C 5.75 g/m*3 3.9 C 0 km/h
339 06-05-2019 04:10:00 3.8 C 5.71 g/m*3 3.8 C 0 km/h
340 06-05-2019 04:15:00 3.8 C 5.71 g/m*3 3.8 C 0 km/h
341 06-05-2019 04:20:00 3.7 C 5.67 g/m*3 3.7 C 0 km/h
342 06-05-2019 04:25:00 3.7 C 5.67 g/m*3 3.7 C 0 km/h
343 06-05-2019 04:30:00 3.6 C 5.63 g/m*3 3.6 C 0 km/h
344 06-05-2019 04:35:00 3.4 C 5.56 g/m*3 3.4 C 0 km/h
345 06-05-2019 04:40:00 3.4 C 5.56 g/m*3 3.4 C 0 km/h
346 06-05-2019 04:45:00 3.3 C 5.58 g/m*3 3.3 C 0 km/h
347 06-05-2019 04:50:00 3.3 C 5.58 g/m*3 3.3 C 0 km/h
348 06-05-2019 04:55:00 3.3 C 5.58 g/m*3 3.3 C 0 km/h
349 06-05-2019 05:00:00 3.3 C 5.58 g/m*3 3.3 C 0 km/h
350 06-05-2019 05:05:00 3.2 C 5.54 g/m*3 3.2 C 1.6 km/h
Sensor: Nr:Datum:Temp:Abs-Feuchte:Windchill:Wind:
Aussen-T/F 351 06-05-2019 05:10:00 3.2 C 5.54 g/m*3 3.2 C 0 km/h
352 06-05-2019 05:15:00 3.1 C 5.51 g/m*3 3.1 C 0 km/h
353 06-05-2019 05:20:00 3.1 C 5.51 g/m*3 3.1 C 0 km/h
354 06-05-2019 05:25:00 3 C 5.47 g/m*3 3 C 0 km/h
355 06-05-2019 05:30:00 3 C 5.47 g/m*3 3 C 0 km/h
356 06-05-2019 05:35:00 2.9 C 5.49 g/m*3 2.9 C 1.6 km/h
357 06-05-2019 05:40:00 2.9 C 5.49 g/m*3 2.9 C 0 km/h
358 06-05-2019 05:45:00 2.9 C 5.49 g/m*3 2.9 C 0 km/h
359 06-05-2019 05:50:00 2.8 C 5.46 g/m*3 2.8 C 0 km/h
360 06-05-2019 05:55:00 2.8 C 5.46 g/m*3 2.8 C 1.6 km/h
361 06-05-2019 06:00:00 2.7 C 5.42 g/m*3 2.7 C 0 km/h
362 06-05-2019 06:05:00 2.7 C 5.42 g/m*3 2.7 C 1.6 km/h
363 06-05-2019 06:10:00 2.7 C 5.42 g/m*3 2.7 C 1.6 km/h
364 06-05-2019 06:15:00 2.8 C 5.51 g/m*3 2.8 C 3.2 km/h
365 06-05-2019 06:20:00 3 C 5.59 g/m*3 3 C 0 km/h
366 06-05-2019 06:25:00 3.2 C 5.66 g/m*3 3.2 C 0 km/h
367 06-05-2019 06:30:00 3.3 C 5.7 g/m*3 3.3 C 1.6 km/h
368 06-05-2019 06:35:00 3.4 C 5.74 g/m*3 3.4 C 3.2 km/h
369 06-05-2019 06:40:00 3.4 C 5.74 g/m*3 3.4 C 1.6 km/h
370 06-05-2019 06:45:00 3.5 C 5.78 g/m*3 3.5 C 3.2 km/h
371 06-05-2019 06:50:00 3.5 C 5.78 g/m*3 3.5 C 3.2 km/h
372 06-05-2019 06:55:00 3.5 C 5.78 g/m*3 3.5 C 4.8 km/h
373 06-05-2019 07:00:00 3.5 C 5.78 g/m*3 3.5 C 1.6 km/h
374 06-05-2019 07:05:00 3.5 C 5.78 g/m*3 3.5 C 1.6 km/h
375 06-05-2019 07:10:00 3.6 C 5.82 g/m*3 3.6 C 3.2 km/h
Sensor: Nr:Datum:Temp:Abs-Feuchte:Windchill:Wind:
Aussen-T/F 376 06-05-2019 07:15:00 3.6 C 5.82 g/m*3 3.6 C 3.2 km/h
377 06-05-2019 07:20:00 3.6 C 5.82 g/m*3 3.6 C 4.8 km/h
378 06-05-2019 07:25:00 3.6 C 5.82 g/m*3 1.98 C 6.4 km/h
379 06-05-2019 07:30:00 3.7 C 5.86 g/m*3 2.09 C 6.4 km/h
380 06-05-2019 07:35:00 3.8 C 5.9 g/m*3 3.8 C 3.2 km/h
381 06-05-2019 07:40:00 3.8 C 5.9 g/m*3 2.21 C 6.4 km/h
382 06-05-2019 07:45:00 3.8 C 5.9 g/m*3 3.8 C 4.8 km/h
383 06-05-2019 07:50:00 3.9 C 5.94 g/m*3 1.82 C 8.1 km/h
384 06-05-2019 07:55:00 4.1 C 6.02 g/m*3 2.05 C 8.1 km/h
385 06-05-2019 08:00:00 4.1 C 5.95 g/m*3 2.55 C 6.4 km/h
386 06-05-2019 08:05:00 4.2 C 6.06 g/m*3 4.2 C 4.8 km/h
387 06-05-2019 08:10:00 4.3 C 6.03 g/m*3 4.3 C 4.8 km/h
388 06-05-2019 08:15:00 4.4 C 6.07 g/m*3 4.4 C 0 km/h
389 06-05-2019 08:20:00 4.5 C 6.11 g/m*3 4.5 C 1.6 km/h
390 06-05-2019 08:25:00 4.6 C 6.15 g/m*3 4.6 C 3.2 km/h
391 06-05-2019 08:30:00 4.6 C 6.09 g/m*3 4.6 C 4.8 km/h
392 06-05-2019 08:35:00 4.7 C 6.13 g/m*3 4.7 C 4.8 km/h
393 06-05-2019 08:40:00 4.7 C 6.13 g/m*3 3.25 C 6.4 km/h
394 06-05-2019 08:45:00 4.8 C 6.1 g/m*3 4.8 C 4.8 km/h
395 06-05-2019 08:50:00 4.9 C 6.14 g/m*3 4.9 C 0 km/h
396 06-05-2019 08:55:00 5 C 6.18 g/m*3 3.59 C 6.4 km/h
397 06-05-2019 09:00:00 5.2 C 6.2 g/m*3 5.2 C 4.8 km/h
398 06-05-2019 09:05:00 5.4 C 6.21 g/m*3 5.4 C 4.8 km/h
399 06-05-2019 09:10:00 5.8 C 6.3 g/m*3 5.8 C 4.8 km/h
400 06-05-2019 09:15:00 6 C 6.24 g/m*3 6 C 3.2 km/h
Sensor: Nr:Datum:Temp:Abs-Feuchte:Windchill:Wind:
Aussen-T/F 401 06-05-2019 09:20:00 6.3 C 6.29 g/m*3 6.3 C 4.8 km/h
402 06-05-2019 09:25:00 6.5 C 6.37 g/m*3 6.5 C 4.8 km/h
403 06-05-2019 09:30:00 6.6 C 6.27 g/m*3 6.6 C 1.6 km/h
404 06-05-2019 09:35:00 6.6 C 6.19 g/m*3 6.6 C 1.6 km/h
405 06-05-2019 09:40:00 6.6 C 6.11 g/m*3 6.6 C 4.8 km/h
406 06-05-2019 09:45:00 6.7 C 6.08 g/m*3 6.7 C 1.6 km/h
407 06-05-2019 09:50:00 6.9 C 6.31 g/m*3 5.34 C 8.1 km/h
408 06-05-2019 09:55:00 7.2 C 6.28 g/m*3 6.13 C 6.4 km/h
409 06-05-2019 10:00:00 7.4 C 6.28 g/m*3 5.58 C 9.7 km/h
410 06-05-2019 10:05:00 7.6 C 6.2 g/m*3 6.16 C 8.1 km/h
411 06-05-2019 10:10:00 7.7 C 6.24 g/m*3 6.28 C 8.1 km/h
412 06-05-2019 10:15:00 7.7 C 6 g/m*3 7.7 C 3.2 km/h
413 06-05-2019 10:20:00 7.8 C 6.04 g/m*3 6.83 C 6.4 km/h
414 06-05-2019 10:25:00 7.9 C 6 g/m*3 7.9 C 4.8 km/h
415 06-05-2019 10:30:00 7.9 C 6 g/m*3 7.9 C 1.6 km/h
416 06-05-2019 10:35:00 8 C 6.12 g/m*3 8 C 3.2 km/h
417 06-05-2019 10:40:00 8.2 C 6.03 g/m*3 6.87 C 8.1 km/h
418 06-05-2019 10:45:00 8.4 C 6.11 g/m*3 7.11 C 8.1 km/h
419 06-05-2019 10:50:00 8.7 C 6.23 g/m*3 7.87 C 6.4 km/h
420 06-05-2019 10:55:00 8.9 C 6.04 g/m*3 8.9 C 4.8 km/h
421 06-05-2019 11:00:00 9.1 C 6.12 g/m*3 9.1 C 4.8 km/h
422 06-05-2019 11:05:00 9.3 C 6.11 g/m*3 9.3 C 0 km/h
423 06-05-2019 11:10:00 9.5 C 5.83 g/m*3 9.5 C 4.8 km/h
424 06-05-2019 11:15:00 9.4 C 5.7 g/m*3 8.68 C 6.4 km/h
425 06-05-2019 11:20:00 9.3 C 5.93 g/m*3 9.3 C 4.8 km/h
Sensor: Nr:Datum:Temp:Abs-Feuchte:Windchill:Wind:
Aussen-T/F 426 06-05-2019 11:25:00 9.2 C 6.07 g/m*3 9.2 C 1.6 km/h
427 06-05-2019 11:30:00 9.2 C 6.07 g/m*3 8.45 C 6.4 km/h
428 06-05-2019 11:35:00 9.2 C 5.8 g/m*3 9.2 C 4.8 km/h
429 06-05-2019 11:40:00 9.3 C 6.29 g/m*3 7.85 C 9.7 km/h
430 06-05-2019 11:45:00 9.4 C 6.33 g/m*3 9.4 C 4.8 km/h
431 06-05-2019 11:50:00 9.5 C 5.92 g/m*3 9.5 C 1.6 km/h
432 06-05-2019 11:55:00 9.6 C 5.95 g/m*3 9.6 C 1.6 km/h
433 06-05-2019 12:00:00 9.7 C 5.62 g/m*3 8.33 C 9.7 km/h
434 06-05-2019 12:05:00 9.7 C 5.53 g/m*3 9.02 C 6.4 km/h
435 06-05-2019 12:10:00 9.7 C 5.16 g/m*3 8.63 C 8.1 km/h
436 06-05-2019 12:15:00 9.8 C 5.29 g/m*3 8.45 C 9.7 km/h
437 06-05-2019 12:20:00 9.8 C 5.47 g/m*3 9.8 C 4.8 km/h
438 06-05-2019 12:25:00 9.9 C 5.51 g/m*3 9.9 C 4.8 km/h
439 06-05-2019 12:30:00 10.1 C 5.86 g/m*3 9.48 C 6.4 km/h
440 06-05-2019 12:35:00 10.3 C 5.84 g/m*3 9.72 C 6.4 km/h
441 06-05-2019 12:40:00 10.3 C 5.55 g/m*3 10.3 C 4.8 km/h
442 06-05-2019 12:45:00 10.3 C 5.75 g/m*3 9.34 C 8.1 km/h
443 06-05-2019 12:50:00 10.4 C 5.88 g/m*3 9.46 C 8.1 km/h
444 06-05-2019 12:55:00 10.6 C 5.86 g/m*3 10.06 C 6.4 km/h
445 06-05-2019 13:00:00 10.6 C 5.76 g/m*3 9.4 C 9.7 km/h
446 06-05-2019 13:05:00 10.7 C 5.6 g/m*3 10.18 C 6.4 km/h
447 06-05-2019 13:10:00 10.7 C 5.99 g/m*3 10.18 C 6.4 km/h
448 06-05-2019 13:15:00 10.9 C 5.67 g/m*3 9.76 C 9.7 km/h
449 06-05-2019 13:20:00 11 C 5.41 g/m*3 9.4 C 12.9 km/h
450 06-05-2019 13:25:00 11 C 5.51 g/m*3 10.16 C 8.1 km/h
Sensor: Nr:Datum:Temp:Abs-Feuchte:Windchill:Wind:
Aussen-T/F 451 06-05-2019 13:30:00 11 C 5.61 g/m*3 10.52 C 6.4 km/h
452 06-05-2019 13:35:00 11.1 C 5.54 g/m*3 11.1 C 12.9 km/h
453 06-05-2019 13:40:00 10.9 C 5.37 g/m*3 10.9 C 4.8 km/h
454 06-05-2019 13:45:00 11.1 C 5.74 g/m*3 11.1 C 8.1 km/h
455 06-05-2019 13:50:00 11.2 C 5.47 g/m*3 11.2 C 11.3 km/h
456 06-05-2019 13:55:00 11.2 C 5.47 g/m*3 11.2 C 9.7 km/h
457 06-05-2019 14:00:00 11.2 C 5.57 g/m*3 11.2 C 11.3 km/h
458 06-05-2019 14:05:00 11.1 C 5.24 g/m*3 11.1 C 6.4 km/h
459 06-05-2019 14:10:00 11.3 C 5.51 g/m*3 11.3 C 9.7 km/h
460 06-05-2019 14:15:00 11.4 C 5.54 g/m*3 11.4 C 8.1 km/h
461 06-05-2019 14:20:00 11.3 C 5.41 g/m*3 11.3 C 6.4 km/h
462 06-05-2019 14:25:00 11.4 C 5.75 g/m*3 11.4 C 9.7 km/h
463 06-05-2019 14:30:00 11.5 C 5.47 g/m*3 11.5 C 6.4 km/h
464 06-05-2019 14:35:00 11.3 C 5.61 g/m*3 11.3 C 14.5 km/h
465 06-05-2019 14:40:00 11.1 C 5.64 g/m*3 11.1 C 11.3 km/h
466 06-05-2019 14:45:00 11.1 C 5.74 g/m*3 11.1 C 8.1 km/h
467 06-05-2019 14:50:00 11.1 C 5.74 g/m*3 11.1 C 6.4 km/h
468 06-05-2019 14:55:00 11.1 C 5.84 g/m*3 11.1 C 12.9 km/h
469 06-05-2019 15:00:00 11.2 C 5.57 g/m*3 11.2 C 8.1 km/h
470 06-05-2019 15:05:00 11.3 C 5.92 g/m*3 11.3 C 8.1 km/h
471 06-05-2019 15:10:00 11.5 C 5.78 g/m*3 11.5 C 9.7 km/h
472 06-05-2019 15:15:00 11.6 C 5.72 g/m*3 11.6 C 6.4 km/h
473 06-05-2019 15:20:00 11.4 C 5.75 g/m*3 11.4 C 11.3 km/h
474 06-05-2019 15:25:00 11.3 C 5.81 g/m*3 11.3 C 9.7 km/h
475 06-05-2019 15:30:00 11.2 C 5.78 g/m*3 11.2 C 11.3 km/h
Sensor: Nr:Datum:Temp:Abs-Feuchte:Windchill:Wind:
Aussen-T/F 476 06-05-2019 15:35:00 11.1 C 5.74 g/m*3 11.1 C 9.7 km/h
477 06-05-2019 15:40:00 11.1 C 5.84 g/m*3 11.1 C 11.3 km/h
478 06-05-2019 15:45:00 11.2 C 5.98 g/m*3 11.2 C 8.1 km/h
479 06-05-2019 15:50:00 11.3 C 6.02 g/m*3 11.3 C 8.1 km/h
480 06-05-2019 15:55:00 11.3 C 6.02 g/m*3 11.3 C 8.1 km/h
481 06-05-2019 16:00:00 11.2 C 6.08 g/m*3 11.2 C 6.4 km/h
482 06-05-2019 16:05:00 11.2 C 6.08 g/m*3 11.2 C 11.3 km/h
483 06-05-2019 16:10:00 11.1 C 6.04 g/m*3 11.1 C 11.3 km/h
484 06-05-2019 16:15:00 11.2 C 5.98 g/m*3 11.2 C 9.7 km/h
485 06-05-2019 16:20:00 11.2 C 5.98 g/m*3 11.2 C 11.3 km/h
486 06-05-2019 16:25:00 11.2 C 6.08 g/m*3 11.2 C 8.1 km/h
487 06-05-2019 16:30:00 11.1 C 5.94 g/m*3 11.1 C 11.3 km/h
488 06-05-2019 16:35:00 10.9 C 6.07 g/m*3 10.41 C 6.4 km/h
489 06-05-2019 16:40:00 10.8 C 5.93 g/m*3 9.16 C 12.9 km/h
490 06-05-2019 16:45:00 10.8 C 6.23 g/m*3 9.64 C 9.7 km/h
491 06-05-2019 16:50:00 10.8 C 6.03 g/m*3 10.8 C 3.2 km/h
492 06-05-2019 16:55:00 10.7 C 6.09 g/m*3 9.81 C 8.1 km/h
493 06-05-2019 17:00:00 10.7 C 5.99 g/m*3 10.7 C 1.6 km/h
494 06-05-2019 17:05:00 10.7 C 5.99 g/m*3 9.52 C 9.7 km/h
495 06-05-2019 17:10:00 10.8 C 6.03 g/m*3 10.29 C 6.4 km/h
496 06-05-2019 17:15:00 10.8 C 6.23 g/m*3 10.8 C 3.2 km/h
497 06-05-2019 17:20:00 10.8 C 5.93 g/m*3 10.8 C 3.2 km/h
498 06-05-2019 17:25:00 10.7 C 5.89 g/m*3 10.7 C 4.8 km/h
499 06-05-2019 17:30:00 10.7 C 5.89 g/m*3 10.18 C 6.4 km/h
500 06-05-2019 17:35:00 10.6 C 6.05 g/m*3 9.69 C 8.1 km/h
Sensor: Nr:Datum:Temp:Abs-Feuchte:Windchill:Wind:
Aussen-T/F 501 06-05-2019 17:40:00 10.6 C 6.05 g/m*3 10.06 C 6.4 km/h
502 06-05-2019 17:45:00 10.6 C 6.05 g/m*3 10.06 C 6.4 km/h
503 06-05-2019 17:50:00 10.6 C 6.05 g/m*3 10.06 C 6.4 km/h
504 06-05-2019 17:55:00 10.5 C 5.82 g/m*3 10.5 C 4.8 km/h
505 06-05-2019 18:00:00 10.5 C 6.01 g/m*3 10.5 C 3.2 km/h
506 06-05-2019 18:05:00 10.6 C 6.25 g/m*3 10.6 C 4.8 km/h
507 06-05-2019 18:10:00 10.9 C 6.47 g/m*3 10.9 C 4.8 km/h
508 06-05-2019 18:15:00 11.3 C 6.22 g/m*3 11.3 C 8.1 km/h
509 06-05-2019 18:20:00 11.5 C 5.99 g/m*3 11.5 C 6.4 km/h
510 06-05-2019 18:25:00 11.6 C 6.44 g/m*3 11.6 C 3.2 km/h
511 06-05-2019 18:30:00 11.8 C 6.42 g/m*3 11.8 C 3.2 km/h
512 06-05-2019 18:35:00 11.8 C 6.42 g/m*3 11.8 C 4.8 km/h
513 06-05-2019 18:40:00 11.8 C 6.1 g/m*3 11.8 C 4.8 km/h
514 06-05-2019 18:45:00 11.8 C 6.42 g/m*3 11.8 C 1.6 km/h
515 06-05-2019 18:50:00 11.8 C 6.42 g/m*3 11.8 C 4.8 km/h
516 06-05-2019 18:55:00 11.7 C 6.38 g/m*3 11.7 C 1.6 km/h
517 06-05-2019 19:00:00 11.6 C 6.13 g/m*3 11.6 C 8.1 km/h
518 06-05-2019 19:05:00 11.3 C 6.22 g/m*3 11.3 C 4.8 km/h
519 06-05-2019 19:10:00 11.3 C 6.73 g/m*3 11.3 C 0 km/h
520 06-05-2019 19:15:00 11.2 C 6.49 g/m*3 11.2 C 6.4 km/h
521 06-05-2019 19:20:00 11 C 6.71 g/m*3 11 C 0 km/h
522 06-05-2019 19:25:00 10.9 C 6.96 g/m*3 10.9 C 0 km/h
523 06-05-2019 19:30:00 10.7 C 6.88 g/m*3 10.7 C 0 km/h
524 06-05-2019 19:35:00 10.6 C 6.93 g/m*3 10.6 C 0 km/h
525 06-05-2019 19:40:00 10.3 C 6.8 g/m*3 10.3 C 0 km/h
Sensor: Nr:Datum:Temp:Abs-Feuchte:Windchill:Wind:
Aussen-T/F 526 06-05-2019 19:45:00 10.2 C 6.95 g/m*3 10.2 C 0 km/h
527 06-05-2019 19:50:00 10.1 C 6.9 g/m*3 10.1 C 0 km/h
528 06-05-2019 19:55:00 9.9 C 6.91 g/m*3 9.9 C 0 km/h
529 06-05-2019 20:00:00 9.7 C 6.73 g/m*3 9.7 C 1.6 km/h
530 06-05-2019 20:05:00 9.6 C 6.87 g/m*3 9.6 C 0 km/h
531 06-05-2019 20:10:00 9.4 C 6.69 g/m*3 9.4 C 0 km/h
532 06-05-2019 20:15:00 9.3 C 6.47 g/m*3 7.12 C 14.5 km/h
533 06-05-2019 20:20:00 9.3 C 6.56 g/m*3 7.33 C 12.9 km/h
534 06-05-2019 20:25:00 9.3 C 6.65 g/m*3 8.56 C 6.4 km/h
535 06-05-2019 20:30:00 9.2 C 6.61 g/m*3 8.45 C 6.4 km/h
536 06-05-2019 20:35:00 9.1 C 6.83 g/m*3 9.1 C 0 km/h
537 06-05-2019 20:40:00 9.1 C 6.92 g/m*3 9.1 C 0 km/h
538 06-05-2019 20:45:00 8.9 C 6.83 g/m*3 8.9 C 0 km/h
539 06-05-2019 20:50:00 8.7 C 6.75 g/m*3 8.7 C 0 km/h
540 06-05-2019 20:55:00 8.6 C 6.87 g/m*3 8.6 C 0 km/h
541 06-05-2019 21:00:00 8.6 C 6.96 g/m*3 8.6 C 0 km/h
542 06-05-2019 21:05:00 8.5 C 7 g/m*3 8.5 C 0 km/h
543 06-05-2019 21:10:00 8.4 C 6.96 g/m*3 8.4 C 0 km/h
544 06-05-2019 21:15:00 8.3 C 6.91 g/m*3 8.3 C 1.6 km/h
545 06-05-2019 21:20:00 8.2 C 6.78 g/m*3 8.2 C 0 km/h
546 06-05-2019 21:25:00 8.2 C 6.87 g/m*3 8.2 C 0 km/h
547 06-05-2019 21:30:00 8.2 C 6.87 g/m*3 8.2 C 0 km/h
548 06-05-2019 21:35:00 8.2 C 6.87 g/m*3 8.2 C 0 km/h
549 06-05-2019 21:40:00 8.2 C 6.87 g/m*3 8.2 C 0 km/h
550 06-05-2019 21:45:00 8.2 C 6.95 g/m*3 8.2 C 0 km/h
Sensor: Nr:Datum:Temp:Abs-Feuchte:Windchill:Wind:
Aussen-T/F 551 06-05-2019 21:50:00 8.1 C 6.82 g/m*3 8.1 C 0 km/h
552 06-05-2019 21:55:00 8.1 C 6.91 g/m*3 8.1 C 0 km/h
553 06-05-2019 22:00:00 8 C 6.86 g/m*3 8 C 0 km/h
554 06-05-2019 22:05:00 7.9 C 6.9 g/m*3 7.9 C 1.6 km/h
555 06-05-2019 22:10:00 7.9 C 6.9 g/m*3 7.9 C 1.6 km/h
556 06-05-2019 22:15:00 7.9 C 6.98 g/m*3 7.9 C 0 km/h
557 06-05-2019 22:20:00 7.9 C 6.98 g/m*3 7.9 C 0 km/h
558 06-05-2019 22:25:00 7.8 C 7.02 g/m*3 7.8 C 0 km/h
559 06-05-2019 22:30:00 7.8 C 7.02 g/m*3 7.8 C 0 km/h
560 06-05-2019 22:35:00 7.7 C 6.97 g/m*3 7.7 C 0 km/h
561 06-05-2019 22:40:00 7.6 C 6.93 g/m*3 7.6 C 0 km/h
562 06-05-2019 22:45:00 7.6 C 7.01 g/m*3 7.6 C 0 km/h
563 06-05-2019 22:50:00 7.5 C 6.96 g/m*3 7.5 C 0 km/h
564 06-05-2019 22:55:00 7.4 C 6.92 g/m*3 7.4 C 0 km/h
565 06-05-2019 23:00:00 7.4 C 6.84 g/m*3 7.4 C 0 km/h
566 06-05-2019 23:05:00 7.3 C 6.79 g/m*3 7.3 C 0 km/h
567 06-05-2019 23:10:00 7.3 C 6.79 g/m*3 7.3 C 0 km/h
568 06-05-2019 23:15:00 7.3 C 6.87 g/m*3 7.3 C 0 km/h
569 06-05-2019 23:20:00 7.3 C 6.87 g/m*3 7.3 C 0 km/h
570 06-05-2019 23:25:00 7.3 C 6.87 g/m*3 7.3 C 0 km/h
571 06-05-2019 23:30:00 7.3 C 6.87 g/m*3 7.3 C 0 km/h
572 06-05-2019 23:35:00 7.3 C 6.87 g/m*3 7.3 C 0 km/h
573 06-05-2019 23:40:00 7.3 C 6.87 g/m*3 7.3 C 0 km/h
574 06-05-2019 23:45:00 7.3 C 6.87 g/m*3 7.3 C 0 km/h
575 06-05-2019 23:50:00 7.3 C 6.87 g/m*3 7.3 C 0 km/h
Sensor: Nr:Datum:Temp:Abs-Feuchte:Windchill:Wind:
Aussen-T/F 576 06-05-2019 23:55:00 7.3 C 6.95 g/m*3 7.3 C 0 km/h

Legende:
   Min
   Max


Maximal/Minimal-Werte vom 05.05.2019 - 06.05.2019

Sensor Min Max Avg
Temp
(Aussen-T/F)
2.3 °C
05-05-2019  07:15:00
13.4 °C
05-05-2019  18:00:00
7.15 °C
Abs-Feuchte
(Aussen-T/F)
5.16 g/m*3
06-05-2019  12:10:00
7.02 g/m*3
06-05-2019  22:25:00
6.1 g/m*3
Windchill
(Aussen-T/F)
0.7 C
05-05-2019  05:20:00
13.4 C
05-05-2019  18:00:00
6.77 C

Die Daten stammen von einer Davis Vantage Pro 2 Wetter-Station und werden unter Linux mit der Software wview2wettercgi und aufbereitet. Alle Angaben erfolgen ohne Gewähr für ihre Vollständigkeit oder Richtigkeit.
Kontakt: Rainer Krienke krienke@uni-koblenz.de . Meine Webseiten an der Uni Koblenz oder privat.
Version: $Revision: 0.78 $